Time;durP1;ratioP1;P1;durP2;ratioP2;P2;SDS_P1;SDS_P2;PMS_P1;PMS_P2;Temp;Humidity;BMP_temperature;BMP_pressure;BME280_temperature;BME280_humidity;BME280_pressure;Samples;Min_cycle;Max_cycle;Signal;HPM_P1;HPM_P2
2024/02/16 00:00:31;;;;;;;11.50;7.53;;;12.00;61.80;;;7.37;100.00;95401.25;4914367;29;20459;-52
2024/02/16 00:02:57;;;;;;;10.77;7.55;;;12.00;61.90;;;7.35;100.00;95402.53;4911761;29;20029;-56
2024/02/16 00:05:22;;;;;;;11.70;7.40;;;12.00;61.80;;;7.35;100.00;95406.00;4917038;29;20022;-55
2024/02/16 00:07:48;;;;;;;10.90;7.60;;;12.00;61.90;;;7.28;100.00;95408.03;4911896;29;20484;-52
2024/02/16 00:10:14;;;;;;;10.20;7.38;;;12.00;61.80;;;7.32;100.00;95403.03;4918392;29;20033;-54
2024/02/16 00:12:41;;;;;;;10.73;7.43;;;12.00;61.90;;;7.36;100.00;95407.59;4914147;29;20062;-53
2024/02/16 00:15:08;;;;;;;11.45;7.40;;;12.00;61.80;;;7.33;100.00;95400.16;4911817;28;20028;-52
2024/02/16 00:17:34;;;;;;;9.00;7.10;;;12.00;61.80;;;7.33;100.00;95399.31;4919853;29;20490;-49
2024/02/16 00:20:00;;;;;;;9.20;6.90;;;12.00;61.70;;;7.31;100.00;95396.16;4911947;28;20122;-49
2024/02/16 00:22:26;;;;;;;9.27;7.10;;;12.00;61.70;;;7.26;100.00;95396.06;4914877;29;20374;-51
2024/02/16 00:24:52;;;;;;;10.77;7.57;;;12.00;61.80;;;7.24;100.00;95398.16;4909316;29;20028;-49
2024/02/16 00:27:18;;;;;;;9.18;6.72;;;11.90;61.70;;;7.17;100.00;95406.31;4914743;29;20714;-51
2024/02/16 00:29:46;;;;;;;12.13;7.30;;;11.90;61.70;;;7.19;100.00;95398.91;4918272;29;20023;-50
2024/02/16 00:32:12;;;;;;;11.45;7.35;;;11.90;61.70;;;7.17;100.00;95404.44;4916422;29;20019;-49
2024/02/16 00:34:41;;;;;;;9.35;7.10;;;11.90;61.80;;;7.18;100.00;95406.06;4912120;29;20030;-50
2024/02/16 00:37:09;;;;;;;12.15;6.85;;;11.80;61.70;;;7.19;100.00;95407.66;4912942;29;20015;-51
2024/02/16 00:39:36;;;;;;;10.93;6.80;;;11.80;61.70;;;7.16;100.00;95405.50;4911771;29;20055;-51
2024/02/16 00:42:03;;;;;;;9.02;6.75;;;11.80;61.70;;;7.17;100.00;95406.31;4910676;29;20040;-48
2024/02/16 00:44:29;;;;;;;9.20;6.55;;;11.80;61.80;;;7.08;100.00;95403.31;4913425;29;20379;-52
2024/02/16 00:46:55;;;;;;;11.43;7.22;;;11.80;61.70;;;7.04;100.00;95396.09;4915163;29;20106;-51
2024/02/16 00:49:20;;;;;;;10.82;6.97;;;11.70;61.70;;;7.01;100.00;95400.03;4917526;29;20505;-50
2024/02/16 00:51:46;;;;;;;10.85;7.13;;;11.70;61.70;;;6.98;100.00;95400.50;4914807;29;20142;-50
2024/02/16 00:54:12;;;;;;;11.73;7.68;;;11.70;61.80;;;6.89;100.00;95401.97;4917130;29;20067;-51
2024/02/16 00:56:38;;;;;;;12.52;7.30;;;11.60;61.80;;;6.89;100.00;95392.22;4922277;29;20027;-52
2024/02/16 00:59:04;;;;;;;10.68;7.38;;;11.60;61.90;;;6.88;100.00;95393.25;4912964;29;20048;-49
2024/02/16 01:01:31;;;;;;;9.23;6.97;;;11.60;62.00;;;6.87;100.00;95401.44;4936003;28;20028;-50
2024/02/16 01:03:56;;;;;;;15.35;7.22;;;11.60;62.00;;;6.85;100.00;95400.88;4897917;29;20028;-55
2024/02/16 01:06:22;;;;;;;10.50;6.53;;;11.60;62.10;;;6.82;100.00;95402.16;4921353;29;20033;-54
2024/02/16 01:08:48;;;;;;;10.68;7.22;;;11.50;62.00;;;6.80;100.00;95400.81;4918823;29;20474;-52
2024/02/16 01:11:14;;;;;;;11.68;7.68;;;11.50;62.00;;;6.77;100.00;95399.47;4935917;28;20544;-50
2024/02/16 01:13:40;;;;;;;10.75;6.93;;;11.50;62.00;;;6.69;100.00;95399.88;4917938;29;20039;-51
2024/02/16 01:16:07;;;;;;;9.95;7.32;;;11.50;62.00;;;6.72;100.00;95407.34;4913528;29;20032;-54
2024/02/16 01:18:36;;;;;;;10.25;7.03;;;11.50;62.00;;;6.72;100.00;95405.47;4915769;29;20038;-55
2024/02/16 01:21:03;;;;;;;10.55;7.55;;;11.50;62.00;;;6.72;100.00;95404.69;4913528;29;20390;-53
2024/02/16 01:23:30;;;;;;;9.82;6.82;;;11.40;62.00;;;6.70;100.00;95412.84;4918580;29;20031;-54
2024/02/16 01:25:55;;;;;;;9.38;6.90;;;11.40;62.10;;;6.62;100.00;95413.28;4912489;29;20058;-53
2024/02/16 01:28:22;;;;;;;9.60;6.68;;;11.40;62.10;;;6.62;100.00;95404.56;4922024;29;20122;-53
2024/02/16 01:30:49;;;;;;;9.18;6.78;;;11.30;62.20;;;6.58;100.00;95406.88;4922941;29;20382;-52
2024/02/16 01:33:15;;;;;;;10.45;7.22;;;11.30;62.20;;;6.50;100.00;95409.94;4935144;28;20333;-50
2024/02/16 01:35:41;;;;;;;11.35;7.15;;;11.20;62.10;;;6.40;100.00;95407.94;4921164;29;20106;-49
2024/02/16 01:38:07;;;;;;;10.70;7.57;;;11.20;62.30;;;6.31;100.00;95412.03;4914232;29;20095;-49
2024/02/16 01:40:33;;;;;;;9.23;7.47;;;11.10;62.20;;;6.31;100.00;95413.88;4915401;29;20034;-57
2024/02/16 01:42:59;;;;;;;9.90;7.07;;;11.00;62.30;;;6.20;100.00;95407.63;4923072;29;20054;-52
2024/02/16 01:45:25;;;;;;;11.07;7.30;;;10.90;62.30;;;6.14;100.00;95416.50;4929573;28;20035;-52
2024/02/16 01:47:53;;;;;;;11.85;7.28;;;10.90;62.30;;;6.09;100.00;95413.81;4927501;29;20031;-52
2024/02/16 01:50:19;;;;;;;11.02;7.72;;;10.80;62.40;;;6.01;100.00;95412.34;4922991;29;20367;-49
2024/02/16 01:52:48;;;;;;;16.58;7.40;;;10.80;62.40;;;5.94;100.00;95417.78;4920931;29;20487;-51
2024/02/16 01:55:16;;;;;;;12.18;8.10;;;10.70;62.50;;;5.87;100.00;95413.69;4928679;29;20042;-51
2024/02/16 01:57:48;;;;;;;12.80;7.78;;;10.60;62.40;;;5.70;100.00;95421.56;4917700;29;20110;-52
2024/02/16 02:00:17;;;;;;;9.88;7.32;;;10.50;62.50;;;5.60;100.00;95414.25;4925702;29;20027;-53
2024/02/16 02:02:47;;;;;;;11.40;7.93;;;10.50;62.50;;;5.57;100.00;95412.09;4924162;29;20077;-49
2024/02/16 02:05:14;;;;;;;12.25;7.85;;;10.40;62.80;;;5.48;100.00;95410.88;4918909;29;20042;-49
2024/02/16 02:07:42;;;;;;;12.02;7.78;;;10.30;62.60;;;5.37;100.00;95411.72;4921983;29;20027;-49
2024/02/16 02:10:08;;;;;;;11.30;7.75;;;10.20;62.70;;;5.38;100.00;95414.13;4921312;29;20039;-53
2024/02/16 02:12:34;;;;;;;10.32;7.57;;;10.10;62.80;;;5.30;100.00;95409.22;4919119;29;20062;-57
2024/02/16 02:15:00;;;;;;;11.27;7.70;;;10.10;62.90;;;5.31;100.00;95410.81;4925041;29;20069;-49
2024/02/16 02:17:26;;;;;;;11.23;7.60;;;10.10;63.10;;;5.24;100.00;95408.31;4921273;29;20584;-49
2024/02/16 02:19:52;;;;;;;11.18;7.68;;;10.00;63.20;;;5.17;100.00;95414.75;4926168;29;20041;-49
2024/02/16 02:22:20;;;;;;;11.43;7.45;;;10.00;63.20;;;5.18;100.00;95414.53;4915647;29;20034;-49
2024/02/16 02:24:51;;;;;;;11.13;7.32;;;10.00;63.30;;;5.16;100.00;95411.31;4928430;29;20027;-49
2024/02/16 02:27:17;;;;;;;15.30;7.38;;;10.00;63.30;;;5.12;100.00;95417.31;4919331;29;20051;-49
2024/02/16 02:29:44;;;;;;;9.43;7.40;;;9.90;63.30;;;5.13;100.00;95406.50;4902752;29;20114;-49
2024/02/16 02:32:10;;;;;;;9.95;7.40;;;9.90;63.40;;;5.10;100.00;95406.97;4919431;29;20386;-52
2024/02/16 02:34:38;;;;;;;11.52;7.85;;;9.90;63.50;;;5.13;100.00;95403.06;4924949;29;20486;-49
2024/02/16 02:37:05;;;;;;;16.05;7.95;;;9.90;63.70;;;5.10;100.00;95412.25;4926461;29;20435;-51
2024/02/16 02:39:32;;;;;;;10.30;7.50;;;9.90;63.80;;;5.17;100.00;95405.03;4936933;28;20063;-56
2024/02/16 02:41:59;;;;;;;13.35;7.88;;;9.90;63.90;;;5.22;100.00;95404.31;4922076;29;20051;-54
2024/02/16 02:44:25;;;;;;;10.85;7.25;;;9.90;64.00;;;5.25;100.00;95407.28;4918264;29;20023;-54
2024/02/16 02:46:52;;;;;;;10.73;7.88;;;9.90;64.00;;;5.25;100.00;95402.00;4914120;29;20454;-51
2024/02/16 02:49:19;;;;;;;11.02;7.32;;;9.90;64.10;;;5.26;100.00;95408.88;4917753;29;20046;-52
2024/02/16 02:51:45;;;;;;;11.98;8.10;;;10.00;64.10;;;5.28;100.00;95408.66;4909041;29;20023;-49
2024/02/16 02:54:10;;;;;;;13.00;7.78;;;9.90;64.10;;;5.30;100.00;95415.31;4917859;29;20106;-49
2024/02/16 02:56:36;;;;;;;10.40;7.63;;;10.00;64.20;;;5.32;100.00;95410.56;4921703;29;20122;-53
2024/02/16 02:59:05;;;;;;;11.82;8.32;;;10.00;64.20;;;5.33;100.00;95412.19;4906479;29;20111;-52
2024/02/16 03:01:31;;;;;;;10.35;7.88;;;10.00;64.20;;;5.34;100.00;95413.78;4919725;29;20537;-56
2024/02/16 03:03:59;;;;;;;11.55;8.05;;;10.00;64.30;;;5.38;100.00;95416.75;4909758;29;20035;-53
2024/02/16 03:06:26;;;;;;;10.90;7.90;;;10.00;64.30;;;5.39;100.00;95414.91;4918750;29;20053;-52
2024/02/16 03:08:51;;;;;;;9.80;8.07;;;10.10;64.40;;;5.44;100.00;95415.03;4914873;29;20406;-51
2024/02/16 03:11:17;;;;;;;11.63;7.85;;;10.10;64.40;;;5.44;100.00;95415.03;4911489;29;20031;-52
2024/02/16 03:13:43;;;;;;;9.68;7.43;;;10.10;64.40;;;5.45;100.00;95420.09;4920388;29;20038;-50
2024/02/16 03:16:09;;;;;;;11.05;7.15;;;10.10;64.40;;;5.48;100.00;95411.66;4909570;29;20106;-51
2024/02/16 03:18:35;;;;;;;12.98;7.97;;;10.10;64.40;;;5.52;100.00;95417.31;4913785;29;20387;-49
2024/02/16 03:21:01;;;;;;;9.98;7.07;;;10.20;64.50;;;5.50;100.00;95416.72;4909786;29;20566;-56
2024/02/16 03:23:28;;;;;;;9.25;7.32;;;10.20;64.60;;;5.51;100.00;95415.69;4914683;29;20097;-56
2024/02/16 03:25:54;;;;;;;11.30;7.35;;;10.20;64.50;;;5.55;100.00;95422.91;4913473;29;20516;-54
2024/02/16 03:28:20;;;;;;;11.65;7.68;;;10.20;64.50;;;5.54;100.00;95420.50;4913329;29;20070;-50
2024/02/16 03:30:47;;;;;;;13.02;7.85;;;10.30;64.70;;;5.56;100.00;95429.78;4912274;29;20030;-49
2024/02/16 03:33:13;;;;;;;10.88;6.93;;;10.20;64.50;;;5.52;100.00;95431.31;4910408;29;20024;-48
2024/02/16 03:35:40;;;;;;;11.43;7.18;;;10.20;64.60;;;5.54;100.00;95429.22;4919101;29;20122;-51
2024/02/16 03:38:07;;;;;;;15.45;7.63;;;10.30;64.60;;;5.54;100.00;95428.41;4911034;29;20023;-56
2024/02/16 03:40:33;;;;;;;13.90;7.63;;;10.30;64.70;;;5.52;100.00;95426.03;4918669;29;20030;-49
2024/02/16 03:43:00;;;;;;;11.95;8.05;;;10.30;64.70;;;5.55;100.00;95425.56;4941295;23;20065;-60
2024/02/16 03:45:29;;;;;;;14.18;7.47;;;10.20;64.60;;;5.55;100.00;95430.84;4941934;28;20038;-61
2024/02/16 03:47:54;;;;;;;9.52;7.20;;;10.20;64.60;;;5.53;100.00;95434.75;4941238;28;20218;-61
2024/02/16 03:50:22;;;;;;;11.40;8.00;;;10.20;64.60;;;5.49;100.00;95428.34;4939698;29;20113;-59
2024/02/16 03:52:48;;;;;;;13.05;7.80;;;10.20;64.70;;;5.51;100.00;95431.53;4934966;28;20061;-61
2024/02/16 03:55:14;;;;;;;10.68;7.95;;;10.20;64.70;;;5.54;100.00;95433.69;4931628;29;20066;-57
2024/02/16 03:57:43;;;;;;;9.98;6.93;;;10.20;64.80;;;5.56;100.00;95429.00;4931052;29;20473;-58
2024/02/16 04:00:12;;;;;;;10.23;6.70;;;10.20;64.90;;;5.62;100.00;95435.97;4931997;29;20439;-58
2024/02/16 04:02:39;;;;;;;11.70;7.45;;;10.30;64.90;;;5.62;100.00;95437.81;4931599;28;20042;-58
2024/02/16 04:05:07;;;;;;;9.20;6.82;;;10.30;64.90;;;5.62;100.00;95435.19;4932835;29;20118;-58
2024/02/16 04:07:34;;;;;;;14.35;7.68;;;10.30;64.80;;;5.60;100.00;95442.53;4931639;29;20042;-58
2024/02/16 04:10:00;;;;;;;10.38;7.15;;;10.30;64.80;;;5.52;100.00;95441.88;4931154;29;20045;-57
2024/02/16 04:12:26;;;;;;;10.25;6.97;;;10.30;64.80;;;5.54;100.00;95442.44;4931927;28;20486;-56
2024/02/16 04:14:52;;;;;;;11.07;7.70;;;10.30;64.80;;;5.55;100.00;95445.91;4948317;28;20126;-55
2024/02/16 04:17:18;;;;;;;11.25;7.72;;;10.20;64.80;;;5.54;100.00;95449.56;4933929;29;20022;-54
2024/02/16 04:19:44;;;;;;;10.23;7.68;;;10.20;64.90;;;5.52;100.00;95447.16;4931875;28;20102;-56
2024/02/16 04:22:10;;;;;;;12.05;7.10;;;10.30;65.00;;;5.57;100.00;95451.72;4945226;28;20114;-59
2024/02/16 04:24:35;;;;;;;10.27;7.07;;;10.20;64.90;;;5.52;100.00;95446.38;4938221;28;20027;-58
2024/02/16 04:27:01;;;;;;;9.93;7.40;;;10.20;64.90;;;5.54;100.00;95446.91;4935939;28;20023;-58
2024/02/16 04:29:27;;;;;;;11.80;6.95;;;10.20;64.90;;;5.54;100.00;95449.56;4934657;29;20035;-59
2024/02/16 04:31:53;;;;;;;11.32;7.78;;;10.20;64.90;;;5.49;100.00;95447.63;4934128;28;20054;-57
2024/02/16 04:34:19;;;;;;;10.65;7.03;;;10.20;65.00;;;5.55;100.00;95451.97;4933419;29;20434;-58
2024/02/16 04:36:45;;;;;;;12.15;7.72;;;10.20;64.90;;;5.55;100.00;95456.47;4935457;29;20035;-56
2024/02/16 04:39:12;;;;;;;10.07;7.13;;;10.20;65.00;;;5.59;100.00;95456.78;4934463;28;20034;-56
2024/02/16 04:41:38;;;;;;;11.63;7.25;;;10.20;65.00;;;5.60;100.00;95455.75;4934685;29;20102;-56
2024/02/16 04:44:04;;;;;;;13.05;8.35;;;10.20;65.00;;;5.61;100.00;95458.16;4935040;29;20513;-54
2024/02/16 04:46:29;;;;;;;15.48;10.73;;;10.20;65.00;;;5.60;100.00;95455.75;4936590;28;20072;-54
2024/02/16 04:48:55;;;;;;;10.27;7.72;;;10.20;65.00;;;5.63;100.00;95447.34;4934897;29;20035;-54
2024/02/16 04:51:21;;;;;;;13.00;7.43;;;10.30;65.00;;;5.63;100.00;95452.63;4938396;28;20043;-52
2024/02/16 04:53:48;;;;;;;12.95;7.15;;;10.20;64.90;;;5.66;100.00;95454.78;4938042;28;20062;-55
2024/02/16 04:56:14;;;;;;;14.40;7.15;;;10.30;65.00;;;5.68;100.00;95463.31;4935195;29;20081;-56
2024/02/16 04:58:43;;;;;;;8.88;6.93;;;10.30;65.00;;;5.72;100.00;95456.50;4933972;28;20026;-57
2024/02/16 05:01:09;;;;;;;8.95;6.43;;;10.40;65.00;;;5.71;100.00;95453.06;4935029;29;20446;-57
2024/02/16 05:03:35;;;;;;;10.23;7.10;;;10.40;64.90;;;5.69;100.00;95455.13;4934328;28;20053;-56
2024/02/16 05:06:01;;;;;;;13.05;7.20;;;10.40;64.90;;;5.68;100.00;95453.53;4934719;28;20035;-58
2024/02/16 05:08:27;;;;;;;14.57;7.05;;;10.40;64.80;;;5.70;100.00;95446.19;4941500;28;20035;-55
2024/02/16 05:10:53;;;;;;;10.18;6.80;;;10.40;64.80;;;5.72;100.00;95452.00;4934053;28;20055;-58
2024/02/16 05:13:18;;;;;;;8.48;6.47;;;10.40;64.70;;;5.73;100.00;95450.16;4934229;29;20027;-59
2024/02/16 05:15:44;;;;;;;9.77;6.72;;;10.40;64.70;;;5.75;100.00;95450.75;4934086;28;20050;-58
2024/02/16 05:18:12;;;;;;;8.65;6.15;;;10.40;64.70;;;5.79;100.00;95450.00;4934369;28;20474;-58
2024/02/16 05:20:39;;;;;;;9.63;6.28;;;10.40;64.60;;;5.83;100.00;95444.25;4929479;29;20026;-58
2024/02/16 05:23:05;;;;;;;9.07;6.05;;;10.50;64.70;;;5.88;100.00;95447.78;4937658;28;20026;-55
2024/02/16 05:25:31;;;;;;;7.22;5.43;;;10.50;64.70;;;5.90;100.00;95451.00;4937100;28;20033;-52
2024/02/16 05:27:57;;;;;;;8.18;5.80;;;10.50;64.70;;;5.91;100.00;95443.88;4934352;29;20035;-53
2024/02/16 05:30:23;;;;;;;7.75;5.55;;;10.50;64.60;;;5.94;100.00;95454.00;4944488;28;20118;-51
2024/02/16 05:32:49;;;;;;;9.32;5.93;;;10.60;64.70;;;5.98;100.00;95449.84;4935388;28;20548;-50
2024/02/16 05:35:16;;;;;;;9.57;6.28;;;10.60;64.60;;;6.01;100.00;95446.72;4934399;29;20027;-52
2024/02/16 05:37:50;;;;;;;8.13;5.07;;;10.60;64.70;;;6.04;100.00;95448.88;4934915;28;20031;-50
2024/02/16 05:40:28;;;;;;;8.10;4.85;;;10.70;64.70;;;6.10;100.00;95449.78;4934199;29;20330;-50
2024/02/16 05:43:00;;;;;;;7.95;4.70;;;10.70;64.60;;;6.12;100.00;95451.16;4936588;28;20034;-52
2024/02/16 05:45:26;;;;;;;6.18;4.20;;;10.70;64.50;;;6.16;100.00;95443.53;4940057;28;20030;-54
2024/02/16 05:47:52;;;;;;;5.78;3.85;;;10.80;64.60;;;6.23;100.00;95449.47;4934586;29;20058;-56
2024/02/16 05:50:22;;;;;;;5.78;3.60;;;10.80;65.20;;;6.31;100.00;95451.72;4940707;28;20393;-56
2024/02/16 05:52:49;;;;;;;6.88;4.35;;;10.90;64.40;;;6.34;100.00;95447.78;4933348;28;20038;-56
2024/02/16 05:55:15;;;;;;;7.70;4.35;;;10.90;64.30;;;6.38;100.00;95454.19;4935077;28;20041;-53
2024/02/16 05:57:41;;;;;;;5.75;4.00;;;10.90;64.20;;;6.41;100.00;95448.44;4934363;29;20023;-55
2024/02/16 06:00:10;;;;;;;6.72;4.75;;;11.00;64.20;;;6.45;100.00;95452.97;4934276;29;20026;-57
2024/02/16 06:02:37;;;;;;;6.20;4.07;;;11.00;64.10;;;6.40;100.00;95449.47;4940079;28;20405;-57
2024/02/16 06:05:04;;;;;;;4.38;3.50;;;11.10;64.10;;;6.45;100.00;95447.69;4933619;29;20174;-56
2024/02/16 06:07:30;;;;;;;6.65;3.67;;;11.10;64.00;;;6.50;100.00;95452.28;4939945;28;20030;-55
2024/02/16 06:09:57;;;;;;;6.10;3.80;;;11.10;63.90;;;6.49;100.00;95448.84;4933399;29;20034;-56
2024/02/16 06:12:23;;;;;;;8.25;3.92;;;11.10;63.80;;;6.49;100.00;95459.41;4933799;28;20055;-54
2024/02/16 06:14:49;;;;;;;5.93;3.95;;;11.20;63.80;;;6.49;100.00;95450.69;4934053;29;20026;-56
2024/02/16 06:17:16;;;;;;;10.80;3.85;;;11.20;63.80;;;6.50;100.00;95452.28;4933394;28;20058;-53
2024/02/16 06:19:43;;;;;;;7.85;3.78;;;11.10;63.70;;;6.54;100.00;95458.69;4937103;28;20027;-56
2024/02/16 06:22:10;;;;;;;6.13;3.97;;;11.20;63.80;;;6.56;100.00;95459.25;4933136;29;20378;-57
2024/02/16 06:24:37;;;;;;;6.43;3.90;;;11.20;63.80;;;6.55;100.00;95464.78;4933958;29;20086;-56
2024/02/16 06:27:04;;;;;;;5.13;4.05;;;11.20;63.80;;;6.55;100.00;95472.72;4934382;28;20039;-53
2024/02/16 06:29:30;;;;;;;5.53;3.92;;;11.20;63.80;;;6.58;100.00;95474.88;4939282;28;20062;-56
2024/02/16 06:31:57;;;;;;;7.88;4.05;;;11.20;63.70;;;6.54;100.00;95489.63;4933599;29;20038;-53
2024/02/16 06:34:23;;;;;;;8.13;3.65;;;11.30;63.70;;;6.58;100.00;95488.94;4935923;28;20115;-52
2024/02/16 06:36:49;;;;;;;6.35;3.88;;;11.30;63.70;;;6.59;100.00;95490.53;4936541;28;20394;-51
2024/02/16 06:39:18;;;;;;;6.30;3.97;;;11.30;63.70;;;6.55;100.00;95494.72;4932716;28;20121;-52
2024/02/16 06:41:49;;;;;;;8.63;4.13;;;11.30;63.80;;;6.62;100.00;95497.97;4931977;29;20031;-52
2024/02/16 06:44:16;;;;;;;5.57;3.65;;;11.30;63.80;;;6.64;100.00;95485.31;4933756;29;20130;-50
2024/02/16 06:46:43;;;;;;;7.05;4.32;;;11.30;63.80;;;6.69;100.00;95489.88;4932540;29;20055;-50
2024/02/16 06:49:10;;;;;;;6.75;3.80;;;11.30;63.80;;;6.74;100.00;95487.31;4933044;29;20041;-51
2024/02/16 06:51:37;;;;;;;7.80;3.85;;;11.40;63.80;;;6.78;100.00;95488.44;4932278;29;20031;-51
2024/02/16 06:54:04;;;;;;;4.90;3.47;;;11.40;63.80;;;6.83;100.00;95500.94;4933229;29;20038;-51
2024/02/16 06:56:31;;;;;;;5.68;3.45;;;11.50;63.80;;;6.86;100.00;95503.91;4949297;28;20031;-56
2024/02/16 06:58:57;;;;;;;7.38;3.75;;;11.60;63.80;;;6.90;100.00;95502.38;4927180;29;20364;-55
2024/02/16 07:01:23;;;;;;;6.68;3.60;;;11.60;63.60;;;6.88;100.00;95509.75;4933348;29;20093;-55
2024/02/16 07:03:49;;;;;;;5.18;3.50;;;11.60;63.50;;;6.94;100.00;95513.28;4938335;28;20023;-55
2024/02/16 07:06:15;;;;;;;8.07;3.70;;;11.70;63.50;;;6.97;100.00;95512.78;4932992;29;20403;-55
2024/02/16 07:08:42;;;;;;;6.22;3.80;;;11.80;63.40;;;7.01;100.00;95521.06;4933101;29;20561;-57
2024/02/16 07:11:11;;;;;;;5.43;3.83;;;11.80;63.30;;;7.05;100.00;95522.97;4932588;28;20019;-53
2024/02/16 07:13:44;;;;;;;6.65;4.35;;;11.90;63.20;;;7.11;100.00;95523.84;4932581;29;20034;-51
2024/02/16 07:16:10;;;;;;;5.90;3.40;;;12.00;63.20;;;7.16;100.00;95529.22;4933134;28;20027;-51
2024/02/16 07:18:36;;;;;;;6.53;3.72;;;12.00;63.10;;;7.22;100.00;95527.44;4939200;28;20074;-54
2024/02/16 07:21:03;;;;;;;4.80;3.58;;;12.10;63.80;;;7.29;100.00;95528.06;4932770;28;20086;-55
2024/02/16 07:23:29;;;;;;;6.47;4.13;;;12.20;63.00;;;7.33;100.00;95535.28;4931996;29;20034;-54
2024/02/16 07:25:57;;;;;;;5.03;3.88;;;12.30;62.80;;;7.40;100.00;95525.31;4935982;28;20027;-52
2024/02/16 07:28:26;;;;;;;6.47;3.35;;;12.40;62.70;;;7.48;100.00;95533.88;4932048;28;20397;-50
2024/02/16 07:30:53;;;;;;;5.70;3.70;;;12.50;62.60;;;7.52;100.00;95527.03;4936161;28;20034;-52
2024/02/16 07:33:20;;;;;;;4.55;3.15;;;12.60;62.40;;;7.62;100.00;95532.47;4946663;28;20019;-52
2024/02/16 07:35:46;;;;;;;5.60;3.88;;;12.70;62.30;;;7.74;100.00;95537.63;4934281;28;20057;-50
2024/02/16 07:38:12;;;;;;;5.68;3.65;;;12.80;62.20;;;7.90;100.00;95536.78;4932804;29;20117;-55
2024/02/16 07:40:38;;;;;;;5.80;3.22;;;12.90;61.90;;;8.07;100.00;95537.47;4934801;28;20019;-53
2024/02/16 07:43:05;;;;;;;7.05;4.05;;;13.10;61.80;;;8.24;100.00;95540.06;4930191;28;20050;-57
2024/02/16 07:45:31;;;;;;;5.95;3.38;;;13.30;61.60;;;8.42;100.00;95541.56;4932418;29;20104;-54
2024/02/16 07:47:57;;;;;;;6.13;3.40;;;13.50;61.30;;;8.61;100.00;95542.00;4934247;28;20486;-56
2024/02/16 07:50:23;;;;;;;5.00;3.30;;;13.70;61.10;;;8.79;99.57;95546.94;4932926;29;20059;-56
2024/02/16 07:52:51;;;;;;;7.03;3.30;;;13.90;60.70;;;9.00;98.18;95549.75;4928161;29;20115;-57
2024/02/16 07:55:20;;;;;;;4.95;3.65;;;14.10;60.40;;;9.17;95.41;95560.22;4933278;29;20651;-57
2024/02/16 07:57:47;;;;;;;5.57;3.45;;;14.30;60.00;;;9.31;94.14;95552.59;4932471;29;20031;-58
2024/02/16 08:00:15;;;;;;;6.28;3.80;;;14.50;59.70;;;9.46;92.48;95558.81;4935866;29;20478;-55
2024/02/16 08:02:43;;;;;;;5.32;3.10;;;14.60;59.50;;;9.57;91.63;95554.34;4936354;28;20054;-57
2024/02/16 08:05:13;;;;;;;5.18;3.60;;;14.80;59.20;;;9.67;90.27;95562.38;4950444;28;20051;-56
2024/02/16 08:07:44;;;;;;;8.32;4.20;;;14.90;59.00;;;9.79;90.58;95562.16;4942615;28;20027;-57
2024/02/16 08:10:10;;;;;;;7.25;4.90;;;15.00;58.80;;;9.89;90.12;95567.50;4937663;28;20023;-57
2024/02/16 08:12:36;;;;;;;6.78;4.38;;;15.10;58.60;;;9.95;89.48;95563.81;4938942;28;20078;-56
2024/02/16 08:15:07;;;;;;;8.13;4.15;;;15.20;58.40;;;10.08;88.82;95567.06;4944498;28;20026;-56
2024/02/16 08:17:37;;;;;;;7.30;4.10;;;15.30;58.10;;;10.17;87.85;95563.63;4939834;28;20023;-58
2024/02/16 08:20:04;;;;;;;6.00;4.22;;;15.40;57.80;;;10.24;86.81;95574.03;4936656;28;20034;-54
2024/02/16 08:22:30;;;;;;;4.60;3.83;;;15.50;58.30;;;10.31;85.39;95566.63;4936295;28;20351;-58
2024/02/16 08:24:56;;;;;;;6.13;4.07;;;15.60;57.50;;;10.40;85.54;95573.03;4946719;28;20058;-55
2024/02/16 08:27:22;;;;;;;6.70;4.10;;;15.70;57.20;;;10.46;84.02;95567.72;4935815;29;20057;-56
2024/02/16 08:29:48;;;;;;;7.28;4.25;;;15.90;57.00;;;10.59;83.73;95580.50;4944303;28;20039;-57
2024/02/16 08:32:16;;;;;;;5.82;3.97;;;16.00;56.80;;;10.68;81.93;95576.25;4936033;29;20034;-54
2024/02/16 08:34:42;;;;;;;7.10;3.90;;;16.10;56.50;;;10.76;80.67;95581.06;4935228;29;20030;-52
2024/02/16 08:37:07;;;;;;;5.50;3.95;;;16.20;56.20;;;10.88;80.32;95589.63;4936371;29;20390;-56
2024/02/16 08:39:34;;;;;;;6.90;3.42;;;16.30;56.00;;;10.97;80.34;95584.56;4944068;28;20051;-58
2024/02/16 08:42:00;;;;;;;7.15;4.28;;;16.40;55.80;;;11.06;79.01;95585.63;4935284;28;20461;-57
2024/02/16 08:44:26;;;;;;;6.18;3.85;;;16.60;55.60;;;11.19;78.39;95588.78;4940034;28;20031;-56
2024/02/16 08:46:54;;;;;;;10.60;4.35;;;16.70;55.30;;;11.31;77.74;95594.66;4935698;29;20109;-58
2024/02/16 08:49:20;;;;;;;7.15;4.00;;;16.80;55.00;;;11.42;76.01;95596.25;4935703;29;20460;-58
2024/02/16 08:51:48;;;;;;;8.35;4.15;;;16.90;54.70;;;11.52;75.68;95592.75;4935547;28;20050;-56
2024/02/16 08:54:14;;;;;;;7.60;3.75;;;17.10;54.50;;;11.67;74.56;95603.41;4938402;28;20038;-57
2024/02/16 08:56:40;;;;;;;6.97;3.92;;;17.20;54.30;;;11.77;73.42;95598.03;4939697;28;20026;-58
2024/02/16 08:59:06;;;;;;;4.00;3.60;;;17.30;53.90;;;11.88;72.43;95598.06;4936641;28;20037;-58
2024/02/16 09:01:39;;;;;;;7.45;4.20;;;17.50;53.70;;;11.99;72.34;95600.41;4936601;28;20367;-56
2024/02/16 09:04:05;;;;;;;;;;;17.60;53.30;;;12.11;70.89;95602.75;4941303;28;20039;-54
2024/02/16 09:06:31;;;;;;;6.65;3.53;;;17.70;53.70;;;12.29;70.35;95603.25;4935270;29;20356;-56
2024/02/16 09:08:57;;;;;;;5.32;3.85;;;17.80;53.00;;;12.53;70.24;95611.38;4935360;28;20102;-57
2024/02/16 09:11:24;;;;;;;6.57;4.38;;;18.10;52.80;;;12.71;68.50;95613.41;4936733;28;20557;-56
2024/02/16 09:13:50;;;;;;;8.20;4.50;;;18.40;52.40;;;12.92;67.30;95611.41;4934805;29;20033;-58
2024/02/16 09:16:16;;;;;;;7.40;3.83;;;18.60;52.00;;;13.17;65.22;95613.09;4945300;28;20019;-52
2024/02/16 09:18:42;;;;;;;4.72;3.00;;;18.90;51.50;;;13.28;63.08;95616.50;4936784;28;20027;-53
2024/02/16 09:21:08;;;;;;;7.43;3.42;;;19.10;51.00;;;13.49;63.54;95615.25;4935128;29;20371;-54
2024/02/16 09:23:36;;;;;;;5.50;3.38;;;19.20;50.50;;;13.68;62.52;95614.53;4934916;28;20034;-55
2024/02/16 09:26:02;;;;;;;5.32;3.53;;;19.40;50.00;;;13.85;60.57;95617.56;4935712;28;20109;-54
2024/02/16 09:28:30;;;;;;;6.75;3.20;;;19.50;49.60;;;13.91;60.48;95621.78;4940701;28;20144;-58
2024/02/16 09:30:57;;;;;;;7.05;3.38;;;19.60;49.30;;;14.04;60.43;95620.31;4935202;29;20386;-55
2024/02/16 09:33:24;;;;;;;4.60;3.28;;;19.70;49.00;;;13.98;59.70;95626.81;4938480;28;20130;-56
2024/02/16 09:35:51;;;;;;;4.95;3.25;;;19.80;48.70;;;14.02;59.05;95620.59;4942256;28;20475;-56
2024/02/16 09:38:17;;;;;;;6.68;3.20;;;19.90;48.30;;;13.99;57.36;95617.69;4935587;28;20042;-56
2024/02/16 09:40:44;;;;;;;4.10;3.30;;;19.90;47.90;;;13.91;57.99;95626.34;4950606;28;20136;-52
2024/02/16 09:43:10;;;;;;;7.78;3.20;;;19.90;47.50;;;14.03;58.45;95624.88;4938027;28;20043;-52
2024/02/16 09:45:37;;;;;;;4.80;3.45;;;19.90;47.40;;;14.02;57.99;95625.16;4953676;28;20138;-55
2024/02/16 09:48:09;;;;;;;8.05;3.63;;;19.90;47.20;;;14.05;57.47;95633.44;4942217;28;20046;-55
2024/02/16 09:50:35;;;;;;;10.95;3.53;;;19.90;46.80;;;14.10;57.60;95636.06;4949546;28;20022;-56
2024/02/16 09:53:06;;;;;;;6.13;3.47;;;19.90;46.90;;;14.22;57.90;95634.84;4933623;29;20478;-55
2024/02/16 09:55:34;;;;;;;6.47;3.55;;;19.90;46.60;;;14.27;57.80;95646.31;4941370;28;20474;-53
2024/02/16 09:58:04;;;;;;;5.32;3.80;;;19.90;46.60;;;14.30;56.29;95643.06;4933842;29;20118;-56
2024/02/16 10:00:31;;;;;;;5.13;3.63;;;20.00;46.30;;;14.34;56.10;95646.75;4938354;28;20463;-55
2024/02/16 10:02:56;;;;;;;4.70;2.83;;;20.00;46.20;;;14.32;55.57;95648.94;4940098;28;20482;-56
2024/02/16 10:05:22;;;;;;;5.85;2.90;;;20.00;45.90;;;14.32;55.65;95651.63;4941175;28;20038;-53
2024/02/16 10:07:49;;;;;;;9.48;3.70;;;20.00;45.60;;;14.43;56.10;95662.19;4937818;28;20034;-53
2024/02/16 10:10:28;;;;;;;5.80;3.65;;;19.90;45.60;;;14.41;56.17;95662.47;4936617;28;20018;-53
2024/02/16 10:13:08;;;;;;;6.88;3.65;;;19.90;45.50;;;14.39;57.34;95666.53;4933334;28;20394;-56
2024/02/16 10:15:35;;;;;;;5.95;3.90;;;19.90;45.50;;;14.34;56.72;95667.38;4933459;29;20031;-54